Lähimpiä lentokenttien sääasemia

 

EFHK - Helsinki/Vantaa, Finland
Ilmasuunta ja etäisyys Sääasema Lakkasuosta: IKO 25km
Päivitetty: 27/05/2018 14:20
Selkeätä
Selkeätä
 Tuulen suunta PLU
Tuuli: PLU 19 km/h
Lämpötila: 20°C
Kastepiste: 0°C
Kosteus: 26%
Ilmanpaine: 1029 hPa
Yhteenveto: Selkeätä
Näkyvyys: enemmän kuin 10 km
2018/05/27 11:20 EFHK 271120Z 34010KT 310V020 CAVOK 20/M00 Q1029 NOSIG
EFHF - Helsinki/Malmi, Finland
Ilmasuunta ja etäisyys Sääasema Lakkasuosta: I 29km
Päivitetty: 06/03/2017 17:50
NOT Current
Selkeätä
Selkeätä
 Tuulen suunta KO
Tuuli: KO 11 km/h
Lämpötila: -2°C
Hyytävyys: -6°C
Kastepiste: -11°C
Kosteus: 51%
Ilmanpaine: 1021 hPa
Yhteenveto: Selkeätä
Näkyvyys: enemmän kuin 10 km
2017/03/06 15:50 EFHF 061550Z 04006KT 330V100 CAVOK M02/M11 Q1021
 
EETN - Tallinn, Estonia
Ilmasuunta ja etäisyys Sääasema Lakkasuosta: E 97km
Päivitetty: 27/05/2018 14:20
Selkeätä
Selkeätä
 Tuulen suunta PKO
Tuuli: PKO 17 km/h
Lämpötila: 19°C
Kastepiste: -1°C
Kosteus: 26%
Ilmanpaine: 1029 hPa
Yhteenveto: Selkeätä
Näkyvyys: enemmän kuin 10 km
2018/05/27 11:20 EETN 271120Z 03009KT 350V060 CAVOK 19/M01 Q1029 NOSIG
EFTU - Turku/Abo, Finland
Ilmasuunta ja etäisyys Sääasema Lakkasuosta: LLU 127km
Päivitetty: 27/05/2018 14:20
Selkeätä
Selkeätä
 Tuulen suunta PKO
Tuuli: PKO 19 km/h
Lämpötila: 21°C
Kastepiste: 1°C
Kosteus: 27%
Ilmanpaine: 1029 hPa
Yhteenveto: Selkeätä
Näkyvyys: enemmän kuin 10 km
2018/05/27 11:20 EFTU 271120Z AUTO 03010KT 350V060 CAVOK 21/01 Q1029
 
EFTP - Tampere/Pirkkala, Finland
Ilmasuunta ja etäisyys Sääasema Lakkasuosta: PLU 138km
Päivitetty: 27/05/2018 14:20
Selkeätä
Selkeätä
 Tuulen suunta P
Tuuli: P 13 km/h
Lämpötila: 17°C
Kastepiste: 0°C
Kosteus: 32%
Ilmanpaine: 1031 hPa
Yhteenveto: Selkeätä
Näkyvyys: enemmän kuin 10 km
2018/05/27 11:20 EFTP 271120Z AUTO 01007KT CAVOK 17/00 Q1031
EFPO - Pori (mil/Civ), Finland
Ilmasuunta ja etäisyys Sääasema Lakkasuosta: LU 199km
Päivitetty: 27/05/2018 14:20
Selkeätä
Selkeätä
 Tuulen suunta LU
Tuuli: LU 26 km/h
Lämpötila: 18°C
Kastepiste: 3°C
Kosteus: 37%
Ilmanpaine: 1031 hPa
Yhteenveto: Selkeätä
Näkyvyys: enemmän kuin 10 km
2018/05/27 11:20 EFPO 271120Z AUTO 31014KT CAVOK 18/03 Q1031
 
EFLP - Lappeenranta, Finland
Ilmasuunta ja etäisyys Sääasema Lakkasuosta: IKO 216km
Päivitetty: 27/05/2018 14:20
Selkeätä
Selkeätä
 Tuulen suunta P
Tuuli: P 19 km/h
Lämpötila: 18°C
Kastepiste: -1°C
Kosteus: 28%
Ilmanpaine: 1027 hPa
Yhteenveto: Selkeätä
Näkyvyys: enemmän kuin 10 km
2018/05/27 11:20 EFLP 271120Z AUTO 35010KT 310V040 CAVOK 18/M01 Q1027
EFMI - Mikkeli, Finland
Ilmasuunta ja etäisyys Sääasema Lakkasuosta: KO 220km
Päivitetty: 27/05/2018 14:20
Selkeätä
Selkeätä
 Tuulen suunta varies
Tuuli: varies 15 km/h
Lämpötila: 18°C
Kastepiste: 0°C
Kosteus: 30%
Ilmanpaine: 1029 hPa
Yhteenveto: Selkeätä
Näkyvyys: enemmän kuin 10 km
2018/05/27 11:20 EFMI 271120Z AUTO VRB08KT CAVOK 18/00 Q1029
 
EFJY - Jyvaskyla (mil/C, Finland
Ilmasuunta ja etäisyys Sääasema Lakkasuosta: PKO 245km
Päivitetty: 27/05/2018 14:20
Selkeätä
Selkeätä
 Tuulen suunta PLU
Tuuli: PLU 13 km/h
Lämpötila: 17°C
Kastepiste: -2°C
Kosteus: 27%
Ilmanpaine: 1029 hPa
Yhteenveto: Selkeätä
Näkyvyys: enemmän kuin 10 km
2018/05/27 11:20 EFJY 271120Z AUTO 33007KT CAVOK 17/M02 Q1029
EFMA - Mariehamn/Aland, Finland
Ilmasuunta ja etäisyys Sääasema Lakkasuosta: L 257km
Päivitetty: 27/05/2018 14:20
Selkeätä
Selkeätä
 Tuulen suunta P
Tuuli: P 19 km/h
Lämpötila: 19°C
Kastepiste: 0°C
Kosteus: 28%
Ilmanpaine: 1031 hPa
Yhteenveto: Selkeätä
Näkyvyys: enemmän kuin 10 km
2018/05/27 11:20 EFMA 271120Z AUTO 01010KT 320V060 CAVOK 19/00 Q1031
 
EFVR - Varkaus, Finland
Ilmasuunta ja etäisyys Sääasema Lakkasuosta: KO 277km
Päivitetty: 15/04/2016 08:50
NOT Current
Selkeätä
Selkeätä
 Tuulen suunta PLU
Tuuli: PLU 15 km/h
Lämpötila: -1°C
Hyytävyys: -6°C
Kastepiste: -8°C
Kosteus: 59%
Ilmanpaine: 1005 hPa
Yhteenveto: Selkeätä
Näkyvyys: enemmän kuin 10 km
2016/04/15 05:50 EFVR 150550Z AUTO 33008KT CAVOK M01/M08 Q1005
EFSI - Seinajoki-Ilmajo, Finland
Ilmasuunta ja etäisyys Sääasema Lakkasuosta: PLU 285km
Päivitetty: 27/05/2018 14:20
Selkeätä
Selkeätä
 Tuulen suunta P
Tuuli: P 13 km/h
Lämpötila: 17°C
Kastepiste: 0°C
Kosteus: 32%
Ilmanpaine: 1031 hPa
Yhteenveto: Selkeätä
Näkyvyys: enemmän kuin 10 km
2018/05/27 11:20 EFSI 271120Z AUTO 35007KT 300V050 CAVOK 17/00 Q1031
 
KSJC - San Jose, California, USA
Ilmasuunta ja etäisyys Sääasema Lakkasuosta: PLU 8758km
Päivitetty: 27/05/2018 13:53
Selkeätä
Selkeätä
 Tuulen suunta calm
Tuuli: Tyyntä
Lämpötila: 12°C
Kastepiste: 9°C
Kosteus: 82%
Ilmanpaine: 1016.3 hPa
Pilvet: Selkeätä
Näkyvyys: 16 km
2018/05/27 10:53 KSJC 271053Z AUTO 00000KT 10SM CLR 12/09 A3001 RMK AO2 SLP160 T01170089